EBBR/BRU METAR and TAF weather

Enter ICAO airport designator
Station Type Date Time Source
EBBR METAR 2022/09/28 18:20 UTC NOAA

EBBR 281820Z 27005KT 9999 FEW038 11/06 Q0999 NOSIG


Station Type Date Time Source
EBBR Decoded METAR 2022/09/28 18:20 UTC NOAA

Bruxelles National, Belgium (EBBR) 50-54N 004-32E 58M
Sep 28, 2022 - 02:20 PM EDT / 2022.09.28 1820 UTC
Wind: from the W (270 degrees) at 6 MPH (5 KT):0
Visibility: greater than 7 mile(s):0
Sky conditions: mostly clear
Temperature: 51 F (11 C)
Dew Point: 42 F (6 C)
Relative Humidity: 71%
Pressure (altimeter): 29.50 in. Hg (0999 hPa)
ob: EBBR 281820Z 27005KT 9999 FEW038 11/06 Q0999 NOSIG
cycle: 18

Station Type Date Time Source
EBBR TAF 2022/09/28 18:29 UTC NOAA

TAF EBBR 281706Z 2818/2924 21004KT 9999 SCT030 PROB30 2904/2907 3000 BR MIFG

Example: see airport list